createdAt,value
2018-11-02T00:00:06.957Z,1019.09
2018-11-02T00:01:06.604Z,1019.08
2018-11-02T00:02:06.958Z,1019.04
2018-11-02T00:03:06.651Z,1018.99
2018-11-02T00:04:06.981Z,1019.07
2018-11-02T00:05:06.509Z,1019.06
2018-11-02T00:06:06.812Z,1019.08
2018-11-02T00:07:06.696Z,1019.08
2018-11-02T00:08:06.513Z,1019.09
2018-11-02T00:09:06.563Z,1019.07
2018-11-02T00:10:06.708Z,1019.08
2018-11-02T00:11:06.704Z,1019.13
2018-11-02T00:12:06.998Z,1019.13
2018-11-02T00:13:06.725Z,1019.18
2018-11-02T00:14:06.666Z,1019.19
2018-11-02T00:15:06.510Z,1019.17
2018-11-02T00:16:06.503Z,1019.17
2018-11-02T00:17:06.593Z,1019.17
2018-11-02T00:18:06.890Z,1019.13
2018-11-02T00:19:06.540Z,1019.22
2018-11-02T00:20:06.921Z,1019.2
2018-11-02T00:21:06.745Z,1019.2
2018-11-02T00:22:06.894Z,1019.21
2018-11-02T00:23:06.559Z,1019.25
2018-11-02T00:24:06.656Z,1019.2
2018-11-02T00:25:06.518Z,1019.23
2018-11-02T00:26:06.574Z,1019.19
2018-11-02T00:27:06.726Z,1019.15
2018-11-02T00:28:06.605Z,1019.15
2018-11-02T00:29:06.640Z,1019.24
2018-11-02T00:30:06.618Z,1019.23
2018-11-02T00:31:06.745Z,1019.21
2018-11-02T00:32:06.928Z,1019.18
2018-11-02T00:33:06.838Z,1019.2
2018-11-02T00:34:06.544Z,1019.19
2018-11-02T00:35:06.585Z,1019.17
2018-11-02T00:36:06.699Z,1019.15
2018-11-02T00:37:06.691Z,1019.19
2018-11-02T00:38:06.727Z,1019.15
2018-11-02T00:39:06.864Z,1019.22
2018-11-02T00:40:06.538Z,1019.25
2018-11-02T00:41:06.821Z,1019.26
2018-11-02T00:42:06.496Z,1019.34
2018-11-02T00:43:06.936Z,1019.37
2018-11-02T00:44:06.734Z,1019.34
2018-11-02T00:45:06.539Z,1019.39
2018-11-02T00:46:06.695Z,1019.46
2018-11-02T00:47:06.731Z,1019.48
2018-11-02T00:48:06.572Z,1019.46
2018-11-02T00:49:06.630Z,1019.48
2018-11-02T00:50:06.746Z,1019.5
2018-11-02T00:51:06.605Z,1019.58
2018-11-02T00:52:06.551Z,1019.56
2018-11-02T00:53:07.004Z,1019.5
2018-11-02T00:54:06.572Z,1019.56
2018-11-02T00:55:06.808Z,1019.56
2018-11-02T00:56:06.464Z,1019.56
2018-11-02T00:57:06.498Z,1019.54
2018-11-02T00:58:06.463Z,1019.58
2018-11-02T00:59:06.568Z,1019.54
2018-11-02T01:00:06.804Z,1019.61
2018-11-02T01:01:06.828Z,1019.57
2018-11-02T01:02:06.562Z,1019.64
2018-11-02T01:03:06.715Z,1019.63
2018-11-02T01:04:06.841Z,1019.67
2018-11-02T01:05:06.477Z,1019.58
2018-11-02T01:06:06.452Z,1019.55
2018-11-02T01:07:06.450Z,1019.56
2018-11-02T01:08:06.462Z,1019.53
2018-11-02T01:09:06.640Z,1019.58
2018-11-02T01:10:06.449Z,1019.54
2018-11-02T01:11:06.463Z,1019.54
2018-11-02T01:12:06.460Z,1019.49
2018-11-02T01:13:06.791Z,1019.5
2018-11-02T01:14:06.438Z,1019.55
2018-11-02T01:15:06.498Z,1019.46
2018-11-02T01:16:06.417Z,1019.51
2018-11-02T01:17:06.456Z,1019.44
2018-11-02T01:18:06.423Z,1019.43
2018-11-02T01:19:06.539Z,1019.47
2018-11-02T01:20:06.453Z,1019.49
2018-11-02T01:21:06.487Z,1019.52
2018-11-02T01:22:06.613Z,1019.44
2018-11-02T01:23:06.430Z,1019.43
2018-11-02T01:24:06.404Z,1019.45
2018-11-02T01:25:06.471Z,1019.52
2018-11-02T01:26:06.514Z,1019.53
2018-11-02T01:27:06.666Z,1019.5
2018-11-02T01:28:06.415Z,1019.53
2018-11-02T01:29:06.577Z,1019.58
2018-11-02T01:30:06.626Z,1019.6
2018-11-02T01:31:06.721Z,1019.55
2018-11-02T01:32:06.666Z,1019.56
2018-11-02T01:33:06.443Z,1019.57
2018-11-02T01:34:06.732Z,1019.6
2018-11-02T01:35:06.446Z,1019.61
2018-11-02T01:36:06.442Z,1019.55
2018-11-02T01:37:06.442Z,1019.57
2018-11-02T01:38:06.728Z,1019.6
2018-11-02T01:39:06.407Z,1019.61
2018-11-02T01:40:06.462Z,1019.55
2018-11-02T01:41:06.493Z,1019.6
2018-11-02T01:42:06.547Z,1019.63
2018-11-02T01:43:06.494Z,1019.7
2018-11-02T01:44:06.839Z,1019.69
2018-11-02T01:45:06.414Z,1019.74
2018-11-02T01:46:06.466Z,1019.78
2018-11-02T01:47:06.409Z,1019.78
2018-11-02T01:48:06.402Z,1019.83
2018-11-02T01:49:06.405Z,1019.87
2018-11-02T01:50:06.388Z,1019.89
2018-11-02T01:51:06.754Z,1019.89
2018-11-02T01:52:07.208Z,1019.87
2018-11-02T01:53:06.829Z,1019.89
2018-11-02T01:54:06.697Z,1019.89
2018-11-02T01:55:06.408Z,1019.93
2018-11-02T01:56:06.358Z,1019.91
2018-11-02T01:57:06.356Z,1019.93
2018-11-02T01:58:06.564Z,1019.94
2018-11-02T01:59:06.454Z,1020
2018-11-02T02:00:06.367Z,1019.99
2018-11-02T02:01:06.407Z,1019.97
2018-11-02T02:02:06.353Z,1020.03
2018-11-02T02:03:06.525Z,1020
2018-11-02T02:04:06.406Z,1019.98
2018-11-02T02:05:06.375Z,1020
2018-11-02T02:06:06.356Z,1019.94
2018-11-02T02:07:07.175Z,1019.95
2018-11-02T02:08:06.396Z,1019.9
2018-11-02T02:09:06.447Z,1019.82
2018-11-02T02:10:06.384Z,1019.81
2018-11-02T02:11:07.134Z,1019.8
2018-11-02T02:12:06.388Z,1019.78
2018-11-02T02:13:06.641Z,1019.77
2018-11-02T02:14:06.420Z,1019.86
2018-11-02T02:15:06.739Z,1019.84
2018-11-02T02:16:06.495Z,1019.86
2018-11-02T02:17:06.718Z,1019.88
2018-11-02T02:18:06.436Z,1019.89
2018-11-02T02:19:06.495Z,1019.88
2018-11-02T02:20:06.386Z,1019.86
2018-11-02T02:21:06.356Z,1019.91
2018-11-02T02:22:06.370Z,1019.91
2018-11-02T02:23:06.417Z,1019.91
2018-11-02T02:24:06.421Z,1019.92
2018-11-02T02:25:06.555Z,1019.96
2018-11-02T02:26:06.477Z,1020
2018-11-02T02:27:06.392Z,1019.97
2018-11-02T02:28:06.334Z,1019.96
2018-11-02T02:29:06.461Z,1019.97
2018-11-02T02:30:06.464Z,1019.98
2018-11-02T02:31:06.382Z,1019.99
2018-11-02T02:32:06.484Z,1019.96
2018-11-02T02:33:06.294Z,1020
2018-11-02T02:34:06.747Z,1019.99
2018-11-02T02:35:06.520Z,1019.97
2018-11-02T02:36:06.468Z,1019.96
2018-11-02T02:37:06.409Z,1020.02
2018-11-02T02:38:06.567Z,1019.99
2018-11-02T02:39:06.320Z,1020.06
2018-11-02T02:40:06.706Z,1020.08
2018-11-02T02:41:06.599Z,1020.04
2018-11-02T02:42:06.257Z,1020.02
2018-11-02T02:43:06.301Z,1020.04
2018-11-02T02:44:06.756Z,1020.07
2018-11-02T02:45:06.317Z,1020.07
2018-11-02T02:46:06.288Z,1020.09
2018-11-02T02:47:06.284Z,1020.12
2018-11-02T02:48:06.315Z,1020.13
2018-11-02T02:49:06.324Z,1020.13
2018-11-02T02:50:06.473Z,1020.16
2018-11-02T02:51:06.318Z,1020.18
2018-11-02T02:52:06.284Z,1020.22
2018-11-02T02:53:06.333Z,1020.2
2018-11-02T02:54:06.277Z,1020.21
2018-11-02T02:55:06.424Z,1020.24
2018-11-02T02:56:06.581Z,1020.28
2018-11-02T02:57:06.300Z,1020.25
2018-11-02T02:58:06.488Z,1020.27
2018-11-02T02:59:06.299Z,1020.3
2018-11-02T03:00:06.296Z,1020.31
2018-11-02T03:01:06.690Z,1020.3
2018-11-02T03:02:06.513Z,1020.35
2018-11-02T03:03:06.532Z,1020.35
2018-11-02T03:04:06.409Z,1020.39
2018-11-02T03:05:06.432Z,1020.44
2018-11-02T03:06:06.669Z,1020.42
2018-11-02T03:07:06.285Z,1020.48
2018-11-02T03:08:06.435Z,1020.55
2018-11-02T03:09:06.441Z,1020.54
2018-11-02T03:10:06.352Z,1020.53
2018-11-02T03:11:07.115Z,1020.55
2018-11-02T03:12:06.393Z,1020.51
2018-11-02T03:13:06.321Z,1020.56
2018-11-02T03:14:06.246Z,1020.55
2018-11-02T03:15:06.382Z,1020.58
2018-11-02T03:16:06.555Z,1020.6
2018-11-02T03:17:06.256Z,1020.61
2018-11-02T03:18:06.417Z,1020.64
2018-11-02T03:19:06.309Z,1020.65
2018-11-02T03:20:06.400Z,1020.68
2018-11-02T03:21:06.300Z,1020.7
2018-11-02T03:22:06.421Z,1020.68
2018-11-02T03:23:06.233Z,1020.72
2018-11-02T03:24:06.342Z,1020.73
2018-11-02T03:25:06.665Z,1020.69
2018-11-02T03:26:06.728Z,1020.75
2018-11-02T03:27:06.285Z,1020.78
2018-11-02T03:28:06.313Z,1020.71
2018-11-02T03:29:06.280Z,1020.76
2018-11-02T03:30:06.558Z,1020.74
2018-11-02T03:31:06.462Z,1020.77
2018-11-02T03:32:06.655Z,1020.83
2018-11-02T03:33:06.358Z,1020.84
2018-11-02T03:34:06.373Z,1020.91
2018-11-02T03:35:06.231Z,1020.91
2018-11-02T03:36:06.517Z,1020.92
2018-11-02T03:37:06.248Z,1020.98
2018-11-02T03:38:06.260Z,1020.96
2018-11-02T03:39:06.383Z,1020.99
2018-11-02T03:40:06.393Z,1020.99
2018-11-02T03:41:06.275Z,1021
2018-11-02T03:42:06.219Z,1021.04
2018-11-02T03:43:06.219Z,1021.02
2018-11-02T03:44:06.246Z,1021.03
2018-11-02T03:45:06.199Z,1020.98
2018-11-02T03:46:06.667Z,1020.99
2018-11-02T03:47:06.324Z,1021.06
2018-11-02T03:48:06.244Z,1021.02
2018-11-02T03:49:06.434Z,1021.03
2018-11-02T03:50:06.285Z,1021.02
2018-11-02T03:51:06.359Z,1021.03
2018-11-02T03:52:06.285Z,1021.01
2018-11-02T03:53:06.327Z,1021.07
2018-11-02T03:54:06.206Z,1021
2018-11-02T03:55:06.264Z,1021
2018-11-02T03:56:06.526Z,1021.01
2018-11-02T03:57:06.266Z,1020.98
2018-11-02T03:58:06.290Z,1020.96
2018-11-02T03:59:06.299Z,1020.91
2018-11-02T04:00:06.257Z,1020.96
2018-11-02T04:01:06.313Z,1021
2018-11-02T04:02:06.231Z,1020.92
2018-11-02T04:03:06.205Z,1020.97
2018-11-02T04:04:06.539Z,1020.99
2018-11-02T04:05:06.342Z,1020.99
2018-11-02T04:06:06.271Z,1020.91
2018-11-02T04:07:06.323Z,1020.93
2018-11-02T04:08:06.161Z,1020.91
2018-11-02T04:09:06.179Z,1020.84
2018-11-02T04:10:06.302Z,1020.89
2018-11-02T04:11:06.205Z,1020.96
2018-11-02T04:12:06.264Z,1020.96
2018-11-02T04:13:06.159Z,1020.94
2018-11-02T04:14:06.172Z,1020.9
2018-11-02T04:15:06.163Z,1020.92
2018-11-02T04:16:06.165Z,1020.92
2018-11-02T04:17:06.259Z,1020.92
2018-11-02T04:18:06.213Z,1020.91
2018-11-02T04:19:06.184Z,1020.93
2018-11-02T04:20:06.193Z,1020.98
2018-11-02T04:21:06.205Z,1020.96
2018-11-02T04:22:06.153Z,1021.04
2018-11-02T04:23:06.145Z,1021.07
2018-11-02T04:24:06.252Z,1021.14
2018-11-02T04:25:06.157Z,1021.13
2018-11-02T04:26:06.278Z,1021.16
2018-11-02T04:27:06.646Z,1021.19
2018-11-02T04:28:06.203Z,1021.23
2018-11-02T04:29:06.154Z,1021.22
2018-11-02T04:30:06.164Z,1021.28
2018-11-02T04:31:06.719Z,1021.26
2018-11-02T04:32:06.343Z,1021.32
2018-11-02T04:33:06.277Z,1021.36
2018-11-02T04:34:06.214Z,1021.36
2018-11-02T04:35:06.297Z,1021.39
2018-11-02T04:36:06.311Z,1021.45
2018-11-02T04:37:06.249Z,1021.48
2018-11-02T04:38:06.286Z,1021.45
2018-11-02T04:39:06.681Z,1021.53
2018-11-02T04:40:06.191Z,1021.49
2018-11-02T04:41:06.249Z,1021.52
2018-11-02T04:42:06.321Z,1021.52
2018-11-02T04:43:06.117Z,1021.55
2018-11-02T04:44:06.364Z,1021.61
2018-11-02T04:45:06.429Z,1021.55
2018-11-02T04:46:06.179Z,1021.59
2018-11-02T04:47:06.425Z,1021.56
2018-11-02T04:48:06.105Z,1021.56
2018-11-02T04:49:06.267Z,1021.56
2018-11-02T04:50:06.176Z,1021.58
2018-11-02T04:51:06.576Z,1021.62
2018-11-02T04:52:06.494Z,1021.62
2018-11-02T04:53:06.277Z,1021.59
2018-11-02T04:54:06.263Z,1021.61
2018-11-02T04:55:06.089Z,1021.58
2018-11-02T04:56:07.448Z,1021.61
2018-11-02T04:57:06.409Z,1021.53
2018-11-02T04:58:06.214Z,1021.58
2018-11-02T04:59:06.159Z,1021.56
2018-11-02T05:00:06.310Z,1021.52
2018-11-02T05:01:06.182Z,1021.56
2018-11-02T05:02:06.195Z,1021.53
2018-11-02T05:03:06.125Z,1021.54
2018-11-02T05:04:06.129Z,1021.53
2018-11-02T05:05:06.147Z,1021.53
2018-11-02T05:06:06.083Z,1021.52
2018-11-02T05:07:06.140Z,1021.56
2018-11-02T05:08:07.995Z,1021.54
2018-11-02T05:09:06.169Z,1021.59
2018-11-02T05:10:06.451Z,1021.59
2018-11-02T05:11:06.202Z,1021.63
2018-11-02T05:12:06.095Z,1021.61
2018-11-02T05:13:06.160Z,1021.71
2018-11-02T05:14:06.138Z,1021.68
2018-11-02T05:15:06.080Z,1021.67
2018-11-02T05:16:06.246Z,1021.69
2018-11-02T05:17:06.347Z,1021.67
2018-11-02T05:18:06.497Z,1021.71
2018-11-02T05:19:06.064Z,1021.67
2018-11-02T05:20:06.251Z,1021.73
2018-11-02T05:21:06.383Z,1021.81
2018-11-02T05:22:06.099Z,1021.78
2018-11-02T05:23:06.302Z,1021.81
2018-11-02T05:24:06.144Z,1021.84
2018-11-02T05:25:06.208Z,1021.78
2018-11-02T05:26:06.923Z,1021.81
2018-11-02T05:27:06.098Z,1021.74
2018-11-02T05:28:06.471Z,1021.78
2018-11-02T05:29:06.082Z,1021.8
2018-11-02T05:30:06.054Z,1021.86
2018-11-02T05:31:06.141Z,1021.87
2018-11-02T05:32:06.048Z,1021.95
2018-11-02T05:33:06.221Z,1021.94
2018-11-02T05:34:06.079Z,1021.97
2018-11-02T05:35:06.222Z,1021.97
2018-11-02T05:36:06.172Z,1021.99
2018-11-02T05:37:06.049Z,1021.99
2018-11-02T05:38:06.087Z,1021.99
2018-11-02T05:39:06.081Z,1022
2018-11-02T05:40:06.414Z,1021.96
2018-11-02T05:41:06.026Z,1021.97
2018-11-02T05:42:06.036Z,1021.97
2018-11-02T05:43:06.075Z,1021.95
2018-11-02T05:44:06.062Z,1021.96
2018-11-02T05:45:06.103Z,1021.96
2018-11-02T05:46:06.065Z,1022.02
2018-11-02T05:47:06.166Z,1021.96
2018-11-02T05:48:06.009Z,1022.02
2018-11-02T05:49:06.074Z,1021.98
2018-11-02T05:50:06.051Z,1022
2018-11-02T05:51:06.072Z,1021.97
2018-11-02T05:52:06.106Z,1021.99
2018-11-02T05:53:06.071Z,1021.98
2018-11-02T05:54:06.591Z,1022
2018-11-02T05:55:06.089Z,1021.99
2018-11-02T05:56:06.097Z,1022
2018-11-02T05:57:06.369Z,1022.02
2018-11-02T05:58:05.997Z,1022.04
2018-11-02T05:59:06.898Z,1022.09
2018-11-02T06:00:06.248Z,1022.1
2018-11-02T06:01:05.997Z,1022.11
2018-11-02T06:02:06.001Z,1022.15
2018-11-02T06:03:06.042Z,1022.13
2018-11-02T06:04:06.279Z,1022.12
2018-11-02T06:05:05.996Z,1022.12
2018-11-02T06:06:06.098Z,1022.15
2018-11-02T06:07:06.064Z,1022.16
2018-11-02T06:08:06.524Z,1022.18
2018-11-02T06:09:06.321Z,1022.22
2018-11-02T06:10:05.984Z,1022.17
2018-11-02T06:11:06.077Z,1022.2
2018-11-02T06:12:06.109Z,1022.22
2018-11-02T06:13:06.449Z,1022.24
2018-11-02T06:14:06.248Z,1022.24
2018-11-02T06:15:06.004Z,1022.23
2018-11-02T06:16:06.130Z,1022.25
2018-11-02T06:17:06.110Z,1022.28
2018-11-02T06:18:05.973Z,1022.3
2018-11-02T06:19:06.193Z,1022.3
2018-11-02T06:20:05.973Z,1022.31
2018-11-02T06:21:06.023Z,1022.37
2018-11-02T06:22:05.973Z,1022.36
2018-11-02T06:23:06.077Z,1022.36
2018-11-02T06:24:06.210Z,1022.38
2018-11-02T06:25:06.015Z,1022.45
2018-11-02T06:26:05.975Z,1022.42
2018-11-02T06:27:05.979Z,1022.4
2018-11-02T06:28:06.390Z,1022.41
2018-11-02T06:29:06.111Z,1022.44
2018-11-02T06:30:05.946Z,1022.48
2018-11-02T06:31:06.005Z,1022.51
2018-11-02T06:32:06.116Z,1022.5
2018-11-02T06:33:06.054Z,1022.48
2018-11-02T06:34:06.059Z,1022.53
2018-11-02T06:35:05.937Z,1022.58
2018-11-02T06:36:06.005Z,1022.59
2018-11-02T06:37:06.102Z,1022.64
2018-11-02T06:38:06.217Z,1022.65
2018-11-02T06:39:06.122Z,1022.71
2018-11-02T06:40:06.377Z,1022.76
2018-11-02T06:41:06.179Z,1022.77
2018-11-02T06:42:06.039Z,1022.78
2018-11-02T06:43:06.565Z,1022.76
2018-11-02T06:44:06.157Z,1022.81
2018-11-02T06:45:06.156Z,1022.8
2018-11-02T06:46:06.008Z,1022.85
2018-11-02T06:47:05.949Z,1022.87
2018-11-02T06:48:06.024Z,1022.87
2018-11-02T06:49:05.974Z,1022.87
2018-11-02T06:50:06.158Z,1022.94
2018-11-02T06:51:06.318Z,1022.96
2018-11-02T06:52:05.906Z,1022.97
2018-11-02T06:53:06.087Z,1023.02
2018-11-02T06:54:06.110Z,1023.06
2018-11-02T06:55:06.367Z,1023.1
2018-11-02T06:56:05.966Z,1023.12
2018-11-02T06:57:06.252Z,1023.17
2018-11-02T06:58:06.047Z,1023.19
2018-11-02T06:59:06.269Z,1023.22
2018-11-02T07:00:06.927Z,1023.21
2018-11-02T07:01:06.184Z,1023.25
2018-11-02T07:02:06.080Z,1023.21
2018-11-02T07:03:05.934Z,1023.25
2018-11-02T07:04:05.946Z,1023.28
2018-11-02T07:05:06.060Z,1023.28
2018-11-02T07:06:06.097Z,1023.34
2018-11-02T07:07:06.138Z,1023.33
2018-11-02T07:08:06.519Z,1023.37
2018-11-02T07:09:06.141Z,1023.36
2018-11-02T07:10:05.938Z,1023.38
2018-11-02T07:11:06.249Z,1023.38
2018-11-02T07:12:05.992Z,1023.42
2018-11-02T07:13:06.080Z,1023.43
2018-11-02T07:14:05.937Z,1023.48
2018-11-02T07:15:06.222Z,1023.46
2018-11-02T07:16:05.954Z,1023.52
2018-11-02T07:17:06.388Z,1023.53
2018-11-02T07:18:05.971Z,1023.53
2018-11-02T07:19:05.971Z,1023.58
2018-11-02T07:20:05.938Z,1023.55
2018-11-02T07:21:06.081Z,1023.59
2018-11-02T07:22:05.882Z,1023.63
2018-11-02T07:23:06.077Z,1023.65
2018-11-02T07:24:06.208Z,1023.71
2018-11-02T07:25:06.150Z,1023.72
2018-11-02T07:26:06.048Z,1023.73
2018-11-02T07:27:06.058Z,1023.73
2018-11-02T07:28:05.900Z,1023.72
2018-11-02T07:29:05.898Z,1023.74
2018-11-02T07:30:05.892Z,1023.76
2018-11-02T07:31:05.935Z,1023.79
2018-11-02T07:32:06.440Z,1023.72
2018-11-02T07:33:05.982Z,1023.75
2018-11-02T07:34:06.154Z,1023.69
2018-11-02T07:35:05.917Z,1023.72
2018-11-02T07:36:05.926Z,1023.68
2018-11-02T07:37:06.882Z,1023.71
2018-11-02T07:38:06.022Z,1023.72
2018-11-02T07:39:05.912Z,1023.78
2018-11-02T07:40:05.959Z,1023.74
2018-11-02T07:41:05.931Z,1023.7
2018-11-02T07:42:06.150Z,1023.79
2018-11-02T07:43:06.064Z,1023.82
2018-11-02T07:44:05.986Z,1023.74
2018-11-02T07:45:05.892Z,1023.71
2018-11-02T07:46:05.982Z,1023.67
2018-11-02T07:47:05.889Z,1023.69
2018-11-02T07:48:05.848Z,1023.68
2018-11-02T07:49:05.990Z,1023.65
2018-11-02T07:50:05.887Z,1023.68
2018-11-02T07:51:05.991Z,1023.66
2018-11-02T07:52:05.961Z,1023.71
2018-11-02T07:53:06.157Z,1023.71
2018-11-02T07:54:05.975Z,1023.69
2018-11-02T07:55:06.086Z,1023.74
2018-11-02T07:56:05.975Z,1023.73
2018-11-02T07:57:05.939Z,1023.72
2018-11-02T07:58:05.952Z,1023.78
2018-11-02T07:59:06.131Z,1023.74
2018-11-02T08:00:06.032Z,1023.77
2018-11-02T08:01:05.994Z,1023.78
2018-11-02T08:02:05.873Z,1023.76
2018-11-02T08:03:06.200Z,1023.72
2018-11-02T08:04:06.021Z,1023.73
2018-11-02T08:05:05.850Z,1023.7
2018-11-02T08:06:05.910Z,1023.64
2018-11-02T08:07:05.963Z,1023.71
2018-11-02T08:08:05.944Z,1023.66
2018-11-02T08:09:05.960Z,1023.66
2018-11-02T08:10:06.061Z,1023.71
2018-11-02T08:11:05.936Z,1023.73
2018-11-02T08:12:05.907Z,1023.75
2018-11-02T08:13:06.280Z,1023.73
2018-11-02T08:14:06.082Z,1023.79
2018-11-02T08:15:05.922Z,1023.84
2018-11-02T08:16:05.798Z,1023.87
2018-11-02T08:17:05.809Z,1023.86
2018-11-02T08:18:05.877Z,1023.86
2018-11-02T08:19:06.358Z,1023.84
2018-11-02T08:20:06.028Z,1023.86
2018-11-02T08:21:06.037Z,1023.87
2018-11-02T08:22:05.883Z,1023.84
2018-11-02T08:23:06.045Z,1023.86
2018-11-02T08:24:05.891Z,1023.9
2018-11-02T08:25:05.801Z,1023.9
2018-11-02T08:26:05.927Z,1023.89
2018-11-02T08:27:05.904Z,1023.92
2018-11-02T08:28:05.979Z,1023.97
2018-11-02T08:29:06.088Z,1023.97
2018-11-02T08:30:05.988Z,1024
2018-11-02T08:31:05.998Z,1023.98
2018-11-02T08:32:05.874Z,1023.95
2018-11-02T08:33:05.803Z,1023.95
2018-11-02T08:34:05.832Z,1023.94
2018-11-02T08:35:05.869Z,1023.97
2018-11-02T08:36:05.824Z,1023.92
2018-11-02T08:37:06.070Z,1023.95
2018-11-02T08:38:06.050Z,1023.94
2018-11-02T08:39:05.865Z,1023.9
2018-11-02T08:40:06.063Z,1023.89
2018-11-02T08:41:05.879Z,1023.89
2018-11-02T08:42:05.782Z,1023.85
2018-11-02T08:43:05.997Z,1023.85
2018-11-02T08:44:05.932Z,1023.87
2018-11-02T08:45:05.915Z,1023.89
2018-11-02T08:46:06.112Z,1023.9
2018-11-02T08:47:05.882Z,1023.88
2018-11-02T08:48:06.033Z,1023.91
2018-11-02T08:49:05.868Z,1023.86
2018-11-02T08:50:06.037Z,1023.9
2018-11-02T08:51:05.841Z,1023.91
2018-11-02T08:52:05.897Z,1023.92
2018-11-02T08:53:05.772Z,1023.91
2018-11-02T08:54:05.826Z,1023.92
2018-11-02T08:55:06.399Z,1023.94
2018-11-02T08:56:05.853Z,1023.95
2018-11-02T08:57:06.105Z,1023.97
2018-11-02T08:58:07.152Z,1023.97
2018-11-02T08:59:06.208Z,1023.99
2018-11-02T09:00:05.998Z,1023.97
2018-11-02T09:01:06.011Z,1024.04
2018-11-02T09:02:06.603Z,1024.01
2018-11-02T09:03:06.029Z,1024.02
2018-11-02T09:04:06.038Z,1024.02
2018-11-02T09:05:06.090Z,1024.01
2018-11-02T09:06:06.041Z,1023.98
2018-11-02T09:07:05.907Z,1023.94
2018-11-02T09:08:05.762Z,1023.96
2018-11-02T09:09:05.906Z,1023.96
2018-11-02T09:10:05.982Z,1023.96
2018-11-02T09:11:05.743Z,1023.93
2018-11-02T09:12:06.178Z,1023.93
2018-11-02T09:13:06.302Z,1023.93
2018-11-02T09:14:05.755Z,1023.91
2018-11-02T09:15:06.086Z,1023.94
2018-11-02T09:16:05.857Z,1023.97
2018-11-02T09:17:05.910Z,1023.94
2018-11-02T09:18:05.770Z,1023.96
2018-11-02T09:19:05.755Z,1023.98
2018-11-02T09:20:05.773Z,1023.92
2018-11-02T09:21:05.800Z,1023.9
2018-11-02T09:22:05.865Z,1023.97
2018-11-02T09:23:06.001Z,1023.93
2018-11-02T09:24:05.907Z,1023.89
2018-11-02T09:25:05.747Z,1023.93
2018-11-02T09:26:06.034Z,1023.91
2018-11-02T09:27:06.093Z,1023.91
2018-11-02T09:28:06.400Z,1023.94
2018-11-02T09:29:06.012Z,1023.92
2018-11-02T09:30:05.877Z,1023.95
2018-11-02T09:31:05.783Z,1023.96
2018-11-02T09:32:05.703Z,1023.95
2018-11-02T09:33:05.729Z,1023.94
2018-11-02T09:34:05.965Z,1023.98
2018-11-02T09:35:06.141Z,1023.94
2018-11-02T09:36:05.696Z,1023.95
2018-11-02T09:37:05.749Z,1023.97
2018-11-02T09:38:05.807Z,1023.95
2018-11-02T09:39:06.091Z,1023.99
2018-11-02T09:40:05.819Z,1023.98
2018-11-02T09:41:05.767Z,1023.98
2018-11-02T09:42:06.158Z,1024.02
2018-11-02T09:43:06.229Z,1024.03
2018-11-02T09:44:05.899Z,1024.05
2018-11-02T09:45:05.691Z,1024.07
2018-11-02T09:46:05.762Z,1024.02
2018-11-02T09:47:06.055Z,1024.05
2018-11-02T09:48:05.952Z,1024.07
2018-11-02T09:49:05.784Z,1024.08
2018-11-02T09:50:05.733Z,1024.04
2018-11-02T09:51:05.730Z,1024.06
2018-11-02T09:52:06.395Z,1024.07
2018-11-02T09:53:05.702Z,1024.06
2018-11-02T09:54:05.756Z,1024.1
2018-11-02T09:55:05.691Z,1024.07
2018-11-02T09:56:05.668Z,1024.08
2018-11-02T09:57:06.088Z,1024.05
2018-11-02T09:58:06.013Z,1024.1
2018-11-02T09:59:06.005Z,1024.07
2018-11-02T10:00:05.835Z,1024.07
2018-11-02T10:01:05.689Z,1024.03
2018-11-02T10:02:06.115Z,1024.09
2018-11-02T10:03:05.659Z,1024.04
2018-11-02T10:04:05.726Z,1024.06
2018-11-02T10:05:05.752Z,1024.1
2018-11-02T10:06:05.740Z,1024.12
2018-11-02T10:07:05.720Z,1024.09
2018-11-02T10:08:05.986Z,1024.12
2018-11-02T10:09:05.927Z,1024.05
2018-11-02T10:10:06.017Z,1024.06
2018-11-02T10:11:05.667Z,1024.06
2018-11-02T10:12:06.395Z,1024.09
2018-11-02T10:13:06.073Z,1024.05
2018-11-02T10:14:06.036Z,1024.04
2018-11-02T10:15:06.047Z,1024.06
2018-11-02T10:16:05.727Z,1024.08
2018-11-02T10:17:05.748Z,1024.06
2018-11-02T10:18:05.744Z,1024.05
2018-11-02T10:19:05.695Z,1024.01
2018-11-02T10:20:05.769Z,1023.94
2018-11-02T10:21:05.713Z,1023.93
2018-11-02T10:22:06.311Z,1023.94
2018-11-02T10:23:05.715Z,1023.85
2018-11-02T10:24:05.771Z,1023.88
2018-11-02T10:25:05.762Z,1023.89
2018-11-02T10:26:05.985Z,1023.92
2018-11-02T10:27:05.702Z,1023.95
2018-11-02T10:28:05.837Z,1023.97
2018-11-02T10:29:05.790Z,1023.97
2018-11-02T10:30:05.649Z,1024.02
2018-11-02T10:31:05.651Z,1024.04
2018-11-02T10:32:05.935Z,1024.05
2018-11-02T10:33:06.137Z,1024
2018-11-02T10:34:05.727Z,1023.98
2018-11-02T10:35:05.754Z,1023.96
2018-11-02T10:36:05.821Z,1023.98
2018-11-02T10:37:05.682Z,1023.98
2018-11-02T10:38:05.887Z,1023.97
2018-11-02T10:39:05.651Z,1024
2018-11-02T10:40:05.641Z,1024.05
2018-11-02T10:41:05.637Z,1024.01
2018-11-02T10:42:05.834Z,1024.03
2018-11-02T10:43:05.658Z,1024.02
2018-11-02T10:44:05.803Z,1024.01
2018-11-02T10:45:05.950Z,1023.93
2018-11-02T10:46:05.715Z,1023.97
2018-11-02T10:47:05.628Z,1024
2018-11-02T10:48:05.675Z,1023.94
2018-11-02T10:49:05.839Z,1023.9
2018-11-02T10:50:05.616Z,1023.92
2018-11-02T10:51:05.686Z,1023.87
2018-11-02T10:52:06.028Z,1023.86
2018-11-02T10:53:05.612Z,1023.92
2018-11-02T10:54:05.748Z,1023.89
2018-11-02T10:55:05.638Z,1023.87
2018-11-02T10:56:05.690Z,1023.84
2018-11-02T10:57:05.729Z,1023.91
2018-11-02T10:58:05.799Z,1023.87
2018-11-02T10:59:05.666Z,1023.87
2018-11-02T11:00:05.627Z,1023.85
2018-11-02T11:01:06.335Z,1023.86
2018-11-02T11:02:06.004Z,1023.83
2018-11-02T11:03:05.679Z,1023.82
2018-11-02T11:04:05.647Z,1023.76
2018-11-02T11:05:05.595Z,1023.77
2018-11-02T11:06:05.637Z,1023.76
2018-11-02T11:07:05.619Z,1023.83
2018-11-02T11:08:06.072Z,1023.81
2018-11-02T11:09:05.581Z,1023.81
2018-11-02T11:10:05.596Z,1023.85
2018-11-02T11:11:07.991Z,1023.85
2018-11-02T11:12:06.179Z,1023.87
2018-11-02T11:13:07.496Z,1023.83
2018-11-02T11:14:05.763Z,1023.8
2018-11-02T11:15:05.585Z,1023.74
2018-11-02T11:16:05.623Z,1023.77
2018-11-02T11:17:05.973Z,1023.75
2018-11-02T11:18:05.604Z,1023.76
2018-11-02T11:19:05.611Z,1023.78
2018-11-02T11:20:05.892Z,1023.75
2018-11-02T11:21:05.834Z,1023.76
2018-11-02T11:22:05.951Z,1023.8
2018-11-02T11:23:05.604Z,1023.72
2018-11-02T11:24:05.688Z,1023.76
2018-11-02T11:25:05.563Z,1023.76
2018-11-02T11:26:05.786Z,1023.79
2018-11-02T11:27:05.644Z,1023.78
2018-11-02T11:28:05.629Z,1023.82
2018-11-02T11:29:05.740Z,1023.85
2018-11-02T11:30:05.606Z,1023.81
2018-11-02T11:31:05.782Z,1023.81
2018-11-02T11:32:06.076Z,1023.81
2018-11-02T11:33:05.619Z,1023.82
2018-11-02T11:34:05.656Z,1023.81
2018-11-02T11:35:05.670Z,1023.79
2018-11-02T11:36:05.595Z,1023.81
2018-11-02T11:37:05.573Z,1023.82
2018-11-02T11:38:05.582Z,1023.79
2018-11-02T11:39:05.606Z,1023.84
2018-11-02T11:40:05.726Z,1023.79
2018-11-02T11:41:05.650Z,1023.85
2018-11-02T11:42:05.637Z,1023.82
2018-11-02T11:43:05.631Z,1023.82
2018-11-02T11:44:05.591Z,1023.84
2018-11-02T11:45:05.621Z,1023.88
2018-11-02T11:46:05.702Z,1023.91
2018-11-02T11:47:05.722Z,1023.86
2018-11-02T11:48:05.940Z,1023.84
2018-11-02T11:49:06.264Z,1023.9
2018-11-02T11:50:05.566Z,1023.89
2018-11-02T11:51:05.541Z,1023.89
2018-11-02T11:52:05.580Z,1023.91
2018-11-02T11:53:05.723Z,1023.9
2018-11-02T11:54:05.666Z,1023.91
2018-11-02T11:55:05.602Z,1023.9
2018-11-02T11:56:05.535Z,1023.93
2018-11-02T11:57:05.656Z,1023.86
2018-11-02T11:58:05.746Z,1023.9
2018-11-02T11:59:05.544Z,1023.91
2018-11-02T12:00:05.579Z,1023.89
2018-11-02T12:01:05.700Z,1023.85
2018-11-02T12:02:05.725Z,1023.88
2018-11-02T12:03:05.586Z,1023.86
2018-11-02T12:04:05.778Z,1023.9
2018-11-02T12:05:06.084Z,1023.87
2018-11-02T12:06:05.610Z,1023.85
2018-11-02T12:07:05.497Z,1023.82
2018-11-02T12:08:05.566Z,1023.83